CheckWX is a tool to help pilots better visualize weather data.  It is not intended as a substitute for an official pre-flight weather briefing.

17:58:17 UTC

PFNO METAR
Robert / Bob / Curtis Memorial Airport
Noorvik, Alaska, USA
Current

1 hour ago

PFNO 171656Z AUTO 08005KT 10SM CLR M22/M24 A2971 RMK AO2 SLP148 T12221244 FZRANO
Observed
Nov-17 @ 16:56 UTC
Wind
  • 080° at 5 KTS
Visibility
10 SM
Flight Rules
VFR
Cloud Levels
  • Clear skies
Temperature
-22°C / -8°F
Dewpoint
-24°C / -11°F
Humidity
84%
Altimeter
29.71" Hg
Pressure
1006.12 hPa
Previous

2 hours ago

PFNO 171556Z AUTO 06004KT 10SM CLR M22/M24 A2971 RMK AO2 SLP147 T12221244 FZRANO
Observed
Nov-17 @ 15:56 UTC
Wind
  • 060° at 4 KTS
Visibility
10 SM
Flight Rules
VFR
Cloud Levels
  • Clear skies
Temperature
-22°C / -8°F
Dewpoint
-24°C / -11°F
Humidity
84%
Altimeter
29.71" Hg
Pressure
1006.12 hPa
Previous

3 hours ago

PFNO 171456Z AUTO 08005KT 10SM CLR M22/M25 A2970 RMK AO2 SLP145 T12221250 55001 FZRANO
Observed
Nov-17 @ 14:56 UTC
Wind
  • 080° at 5 KTS
Visibility
10 SM
Flight Rules
VFR
Cloud Levels
  • Clear skies
Temperature
-22°C / -8°F
Dewpoint
-25°C / -13°F
Humidity
77%
Altimeter
29.7" Hg
Pressure
1005.72 hPa